Kugaaruk Airport
CYBB : rendu visible

Aérodrome :











RETROUVEZ-NOUS SUR...

 
LOGIN :

S'inscrire | Disclaimer

   EN    FR    IT 

 









Légende :    VFR   VFR Marginal   IFR   IFR Intensif   IFR Très Intensif
Visi : 
Plafond : 
>= 8 km
>= 3000ft
5 à 8 km
1000 à 3000 ft
1500m à 5 km
500 à 1000 ft
800 à 1500m
200 à 500 ft
< 800m
< 200 ft
Symboles :   Orages  Brouillard  Fortes neiges  Fortes précipitations  Vent > 20 kt






- Altitude de l'aérodrome : 56 ft
- Code IATA : YBB


CYBB - Kugaaruk

DERNIER METAR :
  • 210000Z VRB02KT 10SM IC HZ SCT020 M26/M29 A3027 RMK SC3 0.0/TRACE LOOSE/LAST STFD OBS/NXT/211300Z SLP254

METARs EXPIRÉS :
  • 202300Z VRB02KT 10SM IC HZ SCT012 M27/M30 A3027 RMK ST3 SLP256
  • 202200Z 00000KT 15SM IC FEW030 M29/M32 A3029 RMK SC2 SLP260

Prévision TAF périmée.



MET'MAP, la Météo Aéronautique d'un coup d'oeil ! - Copyright ORBIFLY Décembre 2007 - Disclaimer

ORBIFLY MET'MAP TEAM :

Programmation & Développement : Alexandra Zaïnal
Conception & Développement : Baudouin d'Aumeries
Co-Programmation & Développement : Marc-Olivier Méhu
Soutien technique & logistique : Manuel Goepfert

Contact : metmap@orbifly.com




SOURCES & CREDITS :

   NOAA       Earth
Advisory